Time;durP1;ratioP1;P1;durP2;ratioP2;P2;SDS_P1;SDS_P2;PMS_P1;PMS_P2;Temp;Humidity;BMP_temperature;BMP_pressure;BME280_temperature;BME280_humidity;BME280_pressure;Samples;Min_cycle;Max_cycle;Signal;HPM_P1;HPM_P2
2023/09/10 00:02:21;;;;;;;16.10;14.80;;;15.10;99.90;;;;;;4955075;28;20101;-79
2023/09/10 00:04:47;;;;;;;19.02;17.52;;;15.10;99.90;;;;;;4952536;28;20805;-78
2023/09/10 00:07:13;;;;;;;16.17;14.88;;;15.00;99.90;;;;;;4953253;28;20054;-78
2023/09/10 00:09:38;;;;;;;13.90;12.80;;;15.00;99.90;;;;;;4971374;28;20065;-78
2023/09/10 00:12:05;;;;;;;14.75;13.57;;;15.00;99.90;;;;;;4967317;28;20061;-78
2023/09/10 00:14:30;;;;;;;16.85;13.95;;;15.10;99.90;;;;;;4948624;28;20062;-79
2023/09/10 00:16:56;;;;;;;18.00;16.10;;;15.00;99.90;;;;;;4950163;28;20061;-79
2023/09/10 00:19:22;;;;;;;14.80;13.55;;;15.00;99.90;;;;;;4947606;28;20657;-80
2023/09/10 00:21:47;;;;;;;23.42;16.42;;;14.90;99.90;;;;;;4938391;28;20691;-77
2023/09/10 00:24:13;;;;;;;28.38;16.60;;;15.00;99.90;;;;;;4948289;28;20062;-78
2023/09/10 00:26:39;;;;;;;22.13;15.85;;;14.90;99.90;;;;;;4954507;28;20058;-80
2023/09/10 00:29:05;;;;;;;15.95;14.43;;;;;;;;;;4947409;28;20066;-78
2023/09/10 00:31:33;;;;;;;17.15;15.75;;;14.80;99.90;;;;;;4953153;28;20054;-77
2023/09/10 00:33:59;;;;;;;14.40;13.30;;;14.90;99.90;;;;;;4942936;28;20102;-78
2023/09/10 00:36:24;;;;;;;30.35;20.90;;;14.90;99.90;;;;;;4948519;28;20062;-78
2023/09/10 00:38:51;;;;;;;20.13;18.65;;;14.80;99.90;;;;;;4939269;28;20144;-81
2023/09/10 00:41:17;;;;;;;18.38;17.02;;;14.80;99.90;;;;;;4951291;28;20050;-78
2023/09/10 00:43:43;;;;;;;17.15;15.80;;;14.80;99.90;;;;;;4943047;28;20059;-78
2023/09/10 00:46:09;;;;;;;18.48;17.10;;;14.80;99.90;;;;;;4948487;28;20994;-78
2023/09/10 00:48:36;;;;;;;19.80;18.08;;;14.80;99.90;;;;;;4951348;28;20086;-79
2023/09/10 00:51:03;;;;;;;22.38;20.58;;;14.80;99.90;;;;;;4951540;28;20094;-80
2023/09/10 00:53:29;;;;;;;19.92;18.30;;;14.80;99.90;;;;;;4953357;28;20050;-78
2023/09/10 00:55:55;;;;;;;31.90;23.95;;;14.80;99.90;;;;;;4931792;28;20053;-79
2023/09/10 00:58:21;;;;;;;61.63;23.48;;;14.80;99.90;;;;;;4968776;28;20054;-79
2023/09/10 01:00:47;;;;;;;21.42;19.65;;;14.80;99.90;;;;;;4948923;28;20085;-78
2023/09/10 01:03:14;;;;;;;21.00;19.20;;;14.80;99.90;;;;;;4954700;28;20073;-78
2023/09/10 01:05:39;;;;;;;23.45;21.35;;;14.80;99.90;;;;;;4947014;28;20050;-78
2023/09/10 01:08:05;;;;;;;21.38;19.48;;;14.70;99.90;;;;;;4953975;28;20057;-79
2023/09/10 01:11:28;;;;;;;21.38;19.20;;;14.70;99.90;;;;;;4948237;28;20201;-80
2023/09/10 01:14:18;;;;;;;19.30;17.63;;;14.70;99.90;;;;;;4932623;28;20098;-78
2023/09/10 01:16:51;;;;;;;20.88;19.20;;;14.70;99.90;;;;;;4962876;28;20126;-78
2023/09/10 01:19:39;;;;;;;20.25;18.52;;;14.70;99.90;;;;;;4958738;28;20132;-79
2023/09/10 01:22:27;;;;;;;18.95;17.35;;;14.60;99.90;;;;;;4947714;28;20786;-78
2023/09/10 01:24:54;;;;;;;19.33;17.75;;;14.60;99.90;;;;;;4957818;28;20121;-77
2023/09/10 01:27:20;;;;;;;19.38;17.88;;;14.60;99.90;;;;;;4954143;28;20058;-78
2023/09/10 01:29:46;;;;;;;21.23;19.52;;;14.60;99.90;;;;;;4941492;28;20062;-77
2023/09/10 01:32:23;;;;;;;25.90;23.48;;;14.60;99.90;;;;;;4948375;28;20058;-78
2023/09/10 01:34:55;;;;;;;23.20;21.00;;;14.60;99.90;;;;;;4946571;28;20054;-78
2023/09/10 01:37:34;;;;;;;25.80;23.40;;;14.60;99.90;;;;;;4941408;28;20062;-78
2023/09/10 01:40:05;;;;;;;31.88;26.02;;;14.60;99.90;;;;;;4944108;28;20058;-77
2023/09/10 01:42:33;;;;;;;28.45;25.52;;;14.50;99.90;;;;;;4954881;28;20058;-77
2023/09/10 01:45:00;;;;;;;26.90;24.05;;;14.50;99.90;;;;;;4947524;28;20058;-78
2023/09/10 01:47:26;;;;;;;28.38;25.73;;;14.50;99.90;;;;;;4952419;28;20051;-77
2023/09/10 01:49:52;;;;;;;24.35;22.15;;;14.40;99.90;;;;;;4958372;28;20157;-77
2023/09/10 01:52:18;;;;;;;29.73;26.77;;;14.40;99.90;;;;;;4948103;28;20051;-77
2023/09/10 01:54:43;;;;;;;40.72;27.30;;;14.40;99.90;;;;;;4947349;28;20058;-77
2023/09/10 01:57:09;;;;;;;42.85;25.23;;;14.30;99.90;;;;;;4956786;28;20058;-77
2023/09/10 01:59:35;;;;;;;138.18;26.42;;;14.30;99.90;;;;;;4939184;28;20058;-77
2023/09/10 02:02:00;;;;;;;101.88;23.80;;;14.30;99.90;;;;;;4932293;28;20059;-77
2023/09/10 02:04:26;;;;;;;46.35;20.73;;;14.30;99.90;;;;;;4927336;28;20534;-77
2023/09/10 02:06:52;;;;;;;22.23;20.33;;;14.30;99.90;;;;;;4931211;28;20075;-77
2023/09/10 02:09:17;;;;;;;19.30;17.70;;;14.20;99.90;;;;;;4937844;28;20168;-77
2023/09/10 02:11:43;;;;;;;21.90;20.10;;;14.20;99.90;;;;;;4921126;29;20051;-77
2023/09/10 02:14:09;;;;;;;21.70;19.58;;;14.20;99.90;;;;;;4926135;28;20115;-77
2023/09/10 02:16:34;;;;;;;23.80;21.80;;;14.20;99.90;;;;;;4938303;28;20063;-78
2023/09/10 02:19:00;;;;;;;25.63;23.52;;;14.10;99.90;;;;;;4940955;28;20065;-77
2023/09/10 02:21:26;;;;;;;24.42;22.23;;;14.10;99.90;;;;;;4947654;28;20134;-77
2023/09/10 02:23:51;;;;;;;23.77;21.88;;;14.10;99.90;;;;;;4935828;28;20464;-77
2023/09/10 02:26:17;;;;;;;23.23;21.17;;;14.00;99.90;;;;;;4931946;28;20114;-77
2023/09/10 02:28:43;;;;;;;21.95;19.95;;;14.10;99.90;;;;;;4934398;28;20055;-77
2023/09/10 02:31:08;;;;;;;18.20;16.70;;;14.00;99.90;;;;;;4935989;28;20063;-78
2023/09/10 02:33:35;;;;;;;16.42;15.13;;;14.00;99.90;;;;;;4932983;28;20428;-78
2023/09/10 02:36:01;;;;;;;11.52;10.73;;;14.00;99.90;;;;;;4922393;28;20063;-77
2023/09/10 02:38:27;;;;;;;11.35;10.45;;;13.90;99.90;;;;;;4923266;28;20054;-76
2023/09/10 02:40:55;;;;;;;12.43;11.32;;;13.90;99.90;;;;;;4938058;28;20426;-77
2023/09/10 02:43:21;;;;;;;15.43;14.18;;;13.90;99.90;;;;;;4929332;28;20603;-78
2023/09/10 02:45:47;;;;;;;13.57;12.57;;;13.90;99.90;;;;;;4935174;28;20066;-78
2023/09/10 02:48:13;;;;;;;16.48;15.10;;;13.90;99.90;;;;;;4931047;29;20791;-78
2023/09/10 02:50:39;;;;;;;19.35;17.58;;;13.90;99.90;;;;;;4934976;28;20062;-78
2023/09/10 02:53:05;;;;;;;21.10;19.10;;;13.90;99.90;;;;;;4938011;28;20047;-77
2023/09/10 02:55:30;;;;;;;20.60;18.58;;;13.90;99.90;;;;;;4923610;28;20118;-78
2023/09/10 02:57:56;;;;;;;22.73;20.52;;;13.90;99.90;;;;;;4933983;28;20070;-78
2023/09/10 03:00:25;;;;;;;21.30;19.23;;;13.90;99.90;;;;;;4951181;28;20055;-78
2023/09/10 03:02:55;;;;;;;20.17;18.17;;;13.90;99.90;;;;;;4948524;28;20066;-78
2023/09/10 03:05:21;;;;;;;23.70;21.42;;;13.90;99.90;;;;;;4949770;28;20055;-78
2023/09/10 03:07:50;;;;;;;27.23;22.73;;;13.90;99.90;;;;;;4936234;28;20063;-78
2023/09/10 03:10:16;;;;;;;25.67;22.60;;;13.80;99.90;;;;;;4940176;28;20066;-78
2023/09/10 03:12:41;;;;;;;24.33;21.70;;;13.90;99.90;;;;;;4928928;28;20086;-78
2023/09/10 03:15:07;;;;;;;20.63;18.67;;;13.80;99.90;;;;;;4957653;28;20062;-78
2023/09/10 03:17:33;;;;;;;16.20;14.55;;;13.90;99.90;;;;;;4948481;28;20057;-80
2023/09/10 03:19:59;;;;;;;19.15;17.23;;;13.60;99.90;;;;;;4962434;28;20050;-78
2023/09/10 03:22:24;;;;;;;29.67;25.20;;;13.80;99.90;;;;;;4955872;28;20434;-80
2023/09/10 03:24:50;;;;;;;21.85;19.67;;;13.90;99.90;;;;;;4938442;28;20166;-80
2023/09/10 03:27:16;;;;;;;16.05;14.65;;;13.90;99.90;;;;;;4947296;28;20104;-79
2023/09/10 03:29:42;;;;;;;17.00;15.48;;;13.90;99.90;;;;;;4942049;28;20061;-78
2023/09/10 03:32:08;;;;;;;23.23;20.85;;;13.90;99.90;;;;;;4948443;28;20134;-79
2023/09/10 03:34:34;;;;;;;20.63;18.67;;;13.90;99.90;;;;;;4940006;28;20042;-78
2023/09/10 03:37:00;;;;;;;20.30;18.50;;;13.90;99.90;;;;;;4947653;28;20058;-78
2023/09/10 03:39:27;;;;;;;28.58;23.20;;;13.90;99.90;;;;;;4957066;28;20151;-81
2023/09/10 03:41:52;;;;;;;87.22;25.38;;;13.80;99.90;;;;;;4961145;28;20062;-78
2023/09/10 03:44:19;;;;;;;24.85;22.17;;;13.80;99.90;;;;;;4947497;28;20062;-80
2023/09/10 03:46:45;;;;;;;22.73;20.42;;;13.70;99.90;;;;;;4956377;28;20058;-77
2023/09/10 03:49:11;;;;;;;31.92;20.10;;;;;;;;;;4954428;28;20930;-79
2023/09/10 03:51:38;;;;;;;127.38;21.20;;;13.70;99.90;;;;;;4949988;28;20058;-79
2023/09/10 03:54:04;;;;;;;112.40;26.00;;;13.80;99.90;;;;;;4950780;28;20050;-80
2023/09/10 03:56:30;;;;;;;132.55;32.90;;;13.70;99.90;;;;;;4955086;28;20066;-77
2023/09/10 03:58:55;;;;;;;166.32;32.83;;;13.70;99.90;;;;;;4945002;28;20054;-78
2023/09/10 04:01:21;;;;;;;192.95;40.97;;;13.70;99.90;;;;;;4941302;28;20062;-79
2023/09/10 04:03:47;;;;;;;278.83;43.33;;;13.60;99.90;;;;;;4948065;28;20062;-76
2023/09/10 04:06:12;;;;;;;153.55;35.72;;;13.50;99.90;;;;;;4943114;28;20094;-79
2023/09/10 04:08:38;;;;;;;193.57;34.03;;;15.10;99.90;;;;;;4950986;28;20109;-80
2023/09/10 04:11:06;;;;;;;223.88;34.28;;;13.50;99.90;;;;;;4943796;28;20050;-76
2023/09/10 04:13:32;;;;;;;325.75;42.35;;;13.50;99.90;;;;;;4940994;28;20126;-76
2023/09/10 04:15:57;;;;;;;361.92;52.00;;;13.50;99.90;;;;;;4955934;28;20062;-80
2023/09/10 04:18:23;;;;;;;245.50;40.40;;;13.50;99.90;;;;;;4955396;28;20089;-79
2023/09/10 04:20:48;;;;;;;270.88;47.83;;;13.50;99.90;;;;;;4951404;28;20085;-78
2023/09/10 04:23:14;;;;;;;278.95;43.83;;;13.50;99.90;;;;;;4948914;28;20063;-80
2023/09/10 04:25:41;;;;;;;197.52;43.70;;;13.60;99.90;;;;;;4952223;28;20058;-77
2023/09/10 04:28:07;;;;;;;266.77;39.47;;;;;;;;;;4966570;28;20086;-76
2023/09/10 04:30:32;;;;;;;193.98;36.90;;;12.90;99.90;;;;;;4950539;28;20475;-78
2023/09/10 04:32:58;;;;;;;109.85;34.97;;;13.60;99.90;;;;;;4955163;28;20085;-79
2023/09/10 04:35:24;;;;;;;255.10;38.60;;;13.50;99.90;;;;;;4940379;28;20063;-77
2023/09/10 04:37:49;;;;;;;96.57;39.15;;;13.50;99.90;;;;;;4950857;28;20059;-78
2023/09/10 04:40:15;;;;;;;87.72;39.78;;;13.50;99.90;;;;;;4940110;28;20067;-74
2023/09/10 04:42:40;;;;;;;63.55;38.75;;;13.40;99.90;;;;;;4954747;28;20050;-76
2023/09/10 04:45:07;;;;;;;78.10;39.75;;;13.40;99.90;;;;;;4953549;28;20070;-81
2023/09/10 04:47:32;;;;;;;45.20;37.95;;;13.40;99.90;;;;;;4958166;28;20133;-78
2023/09/10 04:49:58;;;;;;;39.92;35.60;;;13.50;99.90;;;;;;4947003;28;20534;-78
2023/09/10 04:52:24;;;;;;;36.65;32.38;;;13.40;99.90;;;;;;4940180;28;21085;-79
2023/09/10 04:54:50;;;;;;;162.65;34.30;;;13.50;99.90;;;;;;4959208;28;20058;-77
2023/09/10 04:57:15;;;;;;;139.18;34.40;;;13.40;99.90;;;;;;4951759;28;20610;-77
2023/09/10 04:59:42;;;;;;;189.10;34.53;;;13.30;99.90;;;;;;4956468;28;20521;-75
2023/09/10 05:02:08;;;;;;;155.18;30.52;;;13.70;99.90;;;;;;4957275;28;20702;-75
2023/09/10 05:04:34;;;;;;;146.40;35.75;;;13.30;99.90;;;;;;4952177;28;20062;-76
2023/09/10 05:07:00;;;;;;;84.47;27.98;;;13.20;99.90;;;;;;4954505;28;20806;-77
2023/09/10 05:09:25;;;;;;;46.72;33.42;;;13.20;99.90;;;;;;4956730;28;20065;-79
2023/09/10 05:11:56;;;;;;;27.80;25.60;;;13.20;99.90;;;;;;4955674;28;20059;-75
2023/09/10 05:14:22;;;;;;;27.27;24.60;;;13.20;99.90;;;;;;4953951;28;20687;-75
2023/09/10 05:16:47;;;;;;;26.10;24.08;;;13.20;99.90;;;;;;4959003;28;20136;-77
2023/09/10 05:19:13;;;;;;;26.80;24.60;;;13.20;99.90;;;;;;4955558;28;20053;-74
2023/09/10 05:21:39;;;;;;;26.05;23.95;;;13.30;99.90;;;;;;4957285;28;20180;-74
2023/09/10 05:24:06;;;;;;;26.92;24.80;;;13.80;99.90;;;;;;4958617;28;20058;-77
2023/09/10 05:26:31;;;;;;;26.15;23.85;;;13.20;99.90;;;;;;4941189;28;20065;-78
2023/09/10 05:28:57;;;;;;;32.78;29.58;;;13.30;99.90;;;;;;4952664;28;20058;-78
2023/09/10 05:31:23;;;;;;;24.80;22.80;;;13.30;99.90;;;;;;4954357;28;20141;-75
2023/09/10 05:33:50;;;;;;;23.40;21.42;;;13.40;99.90;;;;;;4956958;28;20070;-75
2023/09/10 05:36:15;;;;;;;25.02;22.80;;;13.50;99.90;;;;;;4958796;28;20138;-76
2023/09/10 05:38:41;;;;;;;24.20;22.23;;;13.60;99.90;;;;;;4959003;28;20054;-79
2023/09/10 05:41:07;;;;;;;25.05;23.08;;;13.70;99.90;;;;;;4959726;28;20062;-77
2023/09/10 05:43:33;;;;;;;29.13;26.17;;;13.80;99.90;;;;;;4953818;28;20046;-77
2023/09/10 05:45:59;;;;;;;30.38;27.73;;;13.90;99.90;;;;;;4959254;28;20062;-75
2023/09/10 05:48:24;;;;;;;31.73;28.90;;;14.00;99.90;;;;;;4951030;28;20061;-75
2023/09/10 05:50:55;;;;;;;27.38;24.95;;;14.10;99.90;;;;;;4957485;28;20162;-78
2023/09/10 05:53:21;;;;;;;23.58;21.58;;;14.40;99.90;;;;;;4952738;28;20050;-75
2023/09/10 05:55:47;;;;;;;21.40;19.60;;;14.80;99.90;;;;;;4967550;28;20096;-77
2023/09/10 05:58:14;;;;;;;17.20;15.70;;;15.60;99.90;;;;;;4951746;28;20847;-75
2023/09/10 06:00:39;;;;;;;17.40;15.90;;;15.60;99.90;;;;;;4951100;28;20523;-76
2023/09/10 06:03:07;;;;;;;14.50;13.40;;;16.10;99.90;;;;;;4952172;28;20064;-78
2023/09/10 06:05:34;;;;;;;20.77;18.85;;;16.50;99.90;;;;;;4953827;28;20147;-75
2023/09/10 06:07:59;;;;;;;22.05;19.95;;;16.90;99.90;;;;;;4951331;28;20677;-79
2023/09/10 06:10:25;;;;;;;23.73;21.65;;;17.20;99.90;;;;;;4958936;28;20051;-78
2023/09/10 06:12:51;;;;;;;22.13;19.88;;;17.70;99.90;;;;;;4957101;28;20721;-74
2023/09/10 06:15:17;;;;;;;22.02;20.13;;;18.70;99.90;;;;;;4965383;28;20054;-77
2023/09/10 06:17:42;;;;;;;20.95;19.10;;;18.60;99.90;;;;;;4952314;28;20563;-79
2023/09/10 06:20:09;;;;;;;20.33;18.33;;;19.10;99.90;;;;;;4950571;28;20504;-79
2023/09/10 06:22:34;;;;;;;20.50;18.65;;;19.60;99.90;;;;;;4944541;28;20050;-76
2023/09/10 06:25:00;;;;;;;18.83;17.00;;;19.90;99.90;;;;;;4952391;28;20511;-78
2023/09/10 06:27:26;;;;;;;20.52;18.63;;;20.10;99.90;;;;;;4953365;28;20531;-75
2023/09/10 06:29:51;;;;;;;20.70;18.88;;;20.30;99.90;;;;;;4949476;28;20058;-78
2023/09/10 06:32:17;;;;;;;20.08;18.33;;;20.20;99.90;;;;;;4971092;28;20065;-79
2023/09/10 06:34:43;;;;;;;20.25;18.45;;;20.00;99.90;;;;;;4946946;28;21015;-75
2023/09/10 06:37:08;;;;;;;22.23;20.35;;;19.70;99.90;;;;;;4945240;28;20576;-77
2023/09/10 06:39:40;;;;;;;20.90;19.02;;;19.60;99.90;;;;;;4953853;28;20061;-79
2023/09/10 06:42:10;;;;;;;21.38;19.60;;;19.50;99.90;;;;;;4957120;28;20054;-76
2023/09/10 06:44:38;;;;;;;21.25;19.45;;;19.40;99.90;;;;;;4944123;28;20137;-79
2023/09/10 06:47:05;;;;;;;22.52;20.52;;;19.60;99.90;;;;;;4955393;28;20487;-79
2023/09/10 06:49:31;;;;;;;23.17;21.27;;;19.50;99.90;;;;;;4947595;28;20126;-78
2023/09/10 06:51:56;;;;;;;28.25;25.95;;;18.90;99.90;;;;;;4949145;28;20050;-77
2023/09/10 06:54:23;;;;;;;27.08;24.85;;;19.30;99.90;;;;;;4953915;28;20475;-77
2023/09/10 06:56:49;;;;;;;27.77;25.23;;;19.20;99.90;;;;;;4953969;28;20054;-78
2023/09/10 06:59:14;;;;;;;30.55;27.85;;;19.20;99.90;;;;;;4953488;28;20061;-77
2023/09/10 07:01:40;;;;;;;33.55;30.45;;;19.20;99.90;;;;;;4943345;28;20149;-76
2023/09/10 07:04:19;;;;;;;37.25;33.40;;;19.10;99.90;;;;;;4938137;28;20061;-78
2023/09/10 07:06:47;;;;;;;38.25;34.55;;;19.10;99.90;;;;;;4947843;28;20065;-79
2023/09/10 07:09:14;;;;;;;37.60;33.83;;;19.10;99.90;;;;;;4951417;28;20050;-79
2023/09/10 07:11:39;;;;;;;35.45;32.15;;;19.10;99.90;;;;;;4944065;28;20142;-81
2023/09/10 07:14:05;;;;;;;37.67;34.22;;;19.10;99.90;;;;;;4942987;28;20058;-77
2023/09/10 07:16:32;;;;;;;38.90;35.40;;;19.20;99.90;;;;;;4954151;28;20609;-80
2023/09/10 07:18:58;;;;;;;39.08;35.30;;;19.20;99.90;;;;;;4946950;28;20055;-78
2023/09/10 07:21:23;;;;;;;39.47;35.80;;;19.30;99.90;;;;;;4948099;28;20084;-80
2023/09/10 07:23:49;;;;;;;45.40;41.17;;;19.30;99.90;;;;;;4937604;28;20066;-78
2023/09/10 07:26:15;;;;;;;45.08;40.33;;;19.50;99.90;;;;;;4943098;28;20066;-78
2023/09/10 07:28:41;;;;;;;42.35;38.13;;;19.50;99.90;;;;;;4954805;28;20054;-77
2023/09/10 07:31:13;;;;;;;47.05;42.65;;;19.70;99.90;;;;;;4946735;28;20145;-77
2023/09/10 07:33:38;;;;;;;50.95;46.05;;;19.90;99.90;;;;;;4946660;28;20459;-78
2023/09/10 07:36:04;;;;;;;48.03;43.40;;;20.00;99.90;;;;;;4955014;28;20058;-78
2023/09/10 07:38:30;;;;;;;47.58;42.67;;;20.20;99.90;;;;;;4947163;28;20829;-77
2023/09/10 07:40:56;;;;;;;50.13;45.17;;;20.30;99.90;;;;;;4946692;28;20082;-78
2023/09/10 07:43:23;;;;;;;51.35;46.15;;;20.40;99.90;;;;;;4953053;28;20863;-79
2023/09/10 07:45:49;;;;;;;49.53;44.47;;;20.60;99.90;;;;;;4946984;28;20077;-79
2023/09/10 07:48:15;;;;;;;40.40;36.30;;;18.50;99.90;;;;;;4939288;28;20426;-80
2023/09/10 07:50:42;;;;;;;50.78;45.78;;;20.90;99.90;;;;;;4948359;28;20054;-81
2023/09/10 07:53:07;;;;;;;31.27;28.08;;;21.10;99.90;;;;;;4956659;28;20503;-80
2023/09/10 07:55:36;;;;;;;29.88;26.90;;;21.30;99.90;;;;;;4955042;28;20054;-78
2023/09/10 07:58:03;;;;;;;44.20;39.53;;;21.40;99.90;;;;;;4932499;28;20090;-80
2023/09/10 08:00:31;;;;;;;42.72;38.13;;;21.50;99.90;;;;;;4949742;28;20070;-80
2023/09/10 08:03:02;;;;;;;40.42;36.38;;;21.70;99.90;;;;;;4935683;28;20054;-80
2023/09/10 08:05:28;;;;;;;38.45;34.83;;;21.80;99.90;;;;;;4924841;28;20055;-80
2023/09/10 08:07:53;;;;;;;25.83;23.15;;;21.90;99.90;;;;;;4945715;28;20058;-80
2023/09/10 08:10:19;;;;;;;38.30;34.45;;;22.00;99.90;;;;;;4952182;28;20059;-82
2023/09/10 08:12:45;;;;;;;40.20;36.20;;;22.10;99.90;;;;;;4932624;28;20051;-81
2023/09/10 08:15:11;;;;;;;40.08;36.17;;;22.20;99.90;;;;;;4934638;28;20138;-81
2023/09/10 08:17:37;;;;;;;38.53;34.90;;;22.30;99.90;;;;;;4924544;28;20134;-81
2023/09/10 08:20:05;;;;;;;39.10;35.47;;;22.60;99.90;;;;;;4915241;28;20134;-82
2023/09/10 08:22:31;;;;;;;35.65;32.25;;;22.80;99.90;;;;;;4932171;28;20063;-80
2023/09/10 08:24:56;;;;;;;35.25;31.80;;;23.60;99.90;;;;;;4927882;28;20089;-81
2023/09/10 08:27:22;;;;;;;35.80;32.30;;;24.60;99.90;;;;;;4929876;28;20058;-80
2023/09/10 08:29:48;;;;;;;28.95;26.13;;;25.70;99.90;;;;;;4913790;29;20062;-82
2023/09/10 08:32:13;;;;;;;26.35;23.58;;;26.60;99.90;;;;;;4930055;28;20051;-80
2023/09/10 08:34:39;;;;;;;28.20;25.38;;;27.40;99.90;;;;;;4919016;28;20054;-80
2023/09/10 08:37:09;;;;;;;26.95;24.33;;;28.00;99.80;;;;;;4924358;28;20095;-79
2023/09/10 08:39:35;;;;;;;26.40;23.83;;;28.60;98.10;;;;;;4934312;28;20073;-79
2023/09/10 08:42:24;;;;;;;18.10;16.23;;;29.20;96.00;;;;;;4942449;28;20061;-80
2023/09/10 08:44:56;;;;;;;20.63;18.65;;;29.70;94.10;;;;;;4949516;28;20138;-80
2023/09/10 08:47:30;;;;;;;18.52;16.75;;;29.80;93.10;;;;;;4928096;28;20109;-79
2023/09/10 08:50:05;;;;;;;21.20;19.08;;;30.10;92.50;;;;;;4932833;28;20063;-79
2023/09/10 08:52:33;;;;;;;21.38;19.27;;;30.40;91.60;;;;;;4937395;28;20084;-77
2023/09/10 08:54:59;;;;;;;20.10;18.08;;;30.90;91.10;;;;;;4928408;28;20058;-77
2023/09/10 08:57:26;;;;;;;18.85;16.85;;;31.10;90.40;;;;;;4925452;28;20066;-77
2023/09/10 08:59:53;;;;;;;18.58;16.77;;;31.20;88.10;;;;;;4944961;28;20161;-76
2023/09/10 09:02:18;;;;;;;19.00;17.00;;;31.50;86.20;;;;;;4964325;28;20141;-77
2023/09/10 09:04:44;;;;;;;19.73;17.90;;;31.50;85.10;;;;;;4953523;28;20535;-77
2023/09/10 09:07:13;;;;;;;14.35;12.98;;;31.60;84.10;;;;;;4950712;28;20150;-78
2023/09/10 09:09:43;;;;;;;11.73;10.52;;;31.60;83.40;;;;;;4949384;28;20049;-77
2023/09/10 09:12:11;;;;;;;9.82;8.77;;;32.70;82.70;;;;;;4949578;28;20046;-79
2023/09/10 09:14:42;;;;;;;9.65;8.73;;;31.70;80.80;;;;;;4944986;28;20073;-80
2023/09/10 09:17:11;;;;;;;15.80;14.23;;;31.60;79.90;;;;;;4949889;28;20436;-80
2023/09/10 09:19:38;;;;;;;12.45;11.15;;;31.40;81.00;;;;;;4945663;28;20141;-81
2023/09/10 09:22:07;;;;;;;15.52;9.77;;;31.50;79.30;;;;;;4943164;28;20140;-78
2023/09/10 09:24:34;;;;;;;10.32;8.55;;;31.80;79.10;;;;;;4942794;28;20058;-78
2023/09/10 09:27:03;;;;;;;11.55;8.13;;;32.00;78.80;;;;;;4950348;28;20070;-77
2023/09/10 09:29:30;;;;;;;11.57;8.93;;;32.10;77.70;;;;;;4956121;28;20057;-76
2023/09/10 09:31:56;;;;;;;11.75;9.32;;;32.20;77.20;;;;;;4946215;28;20138;-77
2023/09/10 09:34:21;;;;;;;10.75;9.65;;;32.30;76.20;;;;;;4950451;28;20097;-76
2023/09/10 09:36:51;;;;;;;8.85;8.00;;;32.30;76.80;;;;;;4952475;28;20165;-77
2023/09/10 09:39:19;;;;;;;8.25;7.45;;;32.30;76.50;;;;;;4956580;28;20149;-77
2023/09/10 09:41:54;;;;;;;11.90;10.73;;;32.20;76.00;;;;;;4947105;28;20421;-77
2023/09/10 09:44:20;;;;;;;7.70;6.80;;;32.10;75.90;;;;;;4953266;28;20097;-76
2023/09/10 09:46:47;;;;;;;7.68;6.88;;;32.20;77.00;;;;;;4951931;28;20752;-77
2023/09/10 09:49:13;;;;;;;12.10;10.15;;;32.10;76.00;;;;;;4958771;28;20054;-80
2023/09/10 09:51:43;;;;;;;11.00;9.35;;;31.90;76.60;;;;;;4945843;28;20945;-77
2023/09/10 09:54:09;;;;;;;14.25;10.68;;;31.80;77.50;;;;;;4951735;28;20090;-78
2023/09/10 09:56:38;;;;;;;9.98;8.05;;;31.90;78.10;;;;;;4956407;28;20061;-80
2023/09/10 09:59:04;;;;;;;8.43;7.60;;;32.10;77.20;;;;;;4954498;28;20082;-80
2023/09/10 10:01:33;;;;;;;12.77;11.55;;;32.20;75.60;;;;;;4953162;28;20127;-79
2023/09/10 10:04:15;;;;;;;11.60;9.40;;;32.20;74.90;;;;;;4953961;28;20058;-79
2023/09/10 10:06:44;;;;;;;11.95;10.85;;;32.30;74.30;;;;;;4953311;28;20066;-77
2023/09/10 10:09:10;;;;;;;7.65;6.88;;;32.30;74.60;;;;;;4955767;28;20490;-78
2023/09/10 10:11:35;;;;;;;15.57;11.38;;;29.60;72.90;;;;;;4949765;28;20051;-79
2023/09/10 10:14:03;;;;;;;13.45;12.02;;;32.20;73.70;;;;;;4951160;28;20054;-80
2023/09/10 10:16:30;;;;;;;9.57;8.57;;;32.30;73.80;;;;;;4953583;28;20054;-77
2023/09/10 10:18:56;;;;;;;7.07;5.85;;;32.40;74.50;;;;;;4955587;28;20065;-80
2023/09/10 10:21:23;;;;;;;16.35;12.13;;;33.00;73.60;;;;;;4955696;28;20108;-79
2023/09/10 10:23:56;;;;;;;10.57;9.52;;;32.30;72.50;;;;;;4953347;28;20073;-78
2023/09/10 10:26:22;;;;;;;12.93;9.65;;;32.20;73.40;;;;;;4954315;28;20089;-77
2023/09/10 10:28:49;;;;;;;12.75;11.43;;;31.90;74.40;;;;;;4951287;28;20792;-77
2023/09/10 10:31:15;;;;;;;13.93;11.48;;;31.60;74.90;;;;;;4942577;28;20062;-79
2023/09/10 10:33:56;;;;;;;13.52;11.07;;;31.40;74.90;;;;;;4956256;28;20050;-78
2023/09/10 10:36:53;;;;;;;12.65;10.77;;;31.20;75.30;;;;;;4973145;28;20060;-82
2023/09/10 10:39:31;;;;;;;18.10;12.25;;;31.10;75.90;;;;;;4935162;28;20054;-77
2023/09/10 10:41:59;;;;;;;15.13;10.45;;;30.70;75.30;;;;;;4950180;28;20062;-79
2023/09/10 10:44:35;;;;;;;11.93;10.68;;;30.40;76.40;;;;;;4953997;28;20101;-79
2023/09/10 10:47:11;;;;;;;10.95;9.32;;;30.10;76.80;;;;;;4931452;28;20069;-77
2023/09/10 10:49:42;;;;;;;16.77;10.50;;;29.80;77.50;;;;;;4950558;28;20575;-79
2023/09/10 10:52:10;;;;;;;14.05;11.32;;;29.50;78.50;;;;;;4937358;28;20515;-76
2023/09/10 10:54:38;;;;;;;9.88;8.15;;;29.30;78.90;;;;;;4953732;28;20064;-77
2023/09/10 10:57:06;;;;;;;14.43;9.27;;;29.10;79.40;;;;;;4949987;28;20109;-78
2023/09/10 10:59:33;;;;;;;12.82;9.85;;;28.90;79.60;;;;;;4952413;28;20058;-77
2023/09/10 11:02:22;;;;;;;10.43;7.28;;;28.70;80.10;;;;;;4948929;28;21165;-80
2023/09/10 11:05:01;;;;;;;13.02;11.05;;;28.50;81.40;;;;;;4950036;28;20162;-78
2023/09/10 11:07:29;;;;;;;9.77;7.47;;;28.40;80.80;;;;;;4951927;28;20062;-78
2023/09/10 11:09:58;;;;;;;8.25;7.15;;;28.30;81.70;;;;;;4941610;28;20053;-78
2023/09/10 11:12:25;;;;;;;14.32;11.63;;;28.20;82.90;;;;;;4953128;28;21021;-81
2023/09/10 11:14:59;;;;;;;10.20;9.10;;;28.10;82.60;;;;;;4955153;28;20061;-77
2023/09/10 11:17:29;;;;;;;8.30;6.95;;;28.00;83.40;;;;;;4953237;28;20051;-78
2023/09/10 11:19:55;;;;;;;10.38;9.38;;;27.80;83.20;;;;;;4952112;28;20144;-78
2023/09/10 11:22:21;;;;;;;13.60;9.25;;;27.60;83.90;;;;;;4954194;28;20054;-77
2023/09/10 11:24:59;;;;;;;9.32;8.40;;;27.50;84.40;;;;;;4946931;28;20166;-80
2023/09/10 11:27:30;;;;;;;9.77;8.73;;;27.40;84.70;;;;;;4955723;28;20065;-77
2023/09/10 11:30:13;;;;;;;15.60;9.48;;;27.40;84.50;;;;;;4937945;28;20585;-80
2023/09/10 11:32:39;;;;;;;11.43;8.93;;;27.40;85.50;;;;;;4949356;28;20149;-77
2023/09/10 11:35:17;;;;;;;11.60;7.05;;;27.30;85.80;;;;;;4954998;28;20061;-82
2023/09/10 11:37:51;;;;;;;11.02;8.73;;;27.30;86.60;;;;;;4954161;28;20058;-77
2023/09/10 11:40:21;;;;;;;10.45;9.20;;;27.20;87.40;;;;;;4952837;28;20496;-77
2023/09/10 11:42:48;;;;;;;9.88;7.35;;;27.20;86.40;;;;;;4943392;28;20790;-77
2023/09/10 11:45:15;;;;;;;12.85;9.35;;;27.20;86.40;;;;;;4950344;28;20735;-79
2023/09/10 11:47:41;;;;;;;9.60;6.75;;;27.10;86.00;;;;;;4948287;28;20128;-83
2023/09/10 11:50:09;;;;;;;11.80;8.02;;;27.00;86.20;;;;;;4950271;28;20054;-77
2023/09/10 11:52:36;;;;;;;12.15;8.75;;;26.90;86.80;;;;;;4948537;28;20093;-79
2023/09/10 11:55:03;;;;;;;13.23;8.90;;;26.80;86.80;;;;;;4953133;28;20137;-76
2023/09/10 11:57:29;;;;;;;15.43;9.73;;;26.80;87.20;;;;;;4945524;28;20054;-76
2023/09/10 11:59:55;;;;;;;12.00;6.93;;;26.90;87.70;;;;;;4945337;28;20051;-78
2023/09/10 12:02:21;;;;;;;9.05;7.88;;;26.90;87.70;;;;;;4967239;28;20058;-76
2023/09/10 12:04:47;;;;;;;10.20;7.35;;;26.90;87.80;;;;;;4950727;28;20166;-77
2023/09/10 12:07:13;;;;;;;9.63;6.90;;;26.80;88.60;;;;;;4954099;28;20145;-78
2023/09/10 12:09:39;;;;;;;12.13;7.20;;;26.90;89.10;;;;;;4948879;28;20130;-77
2023/09/10 12:12:10;;;;;;;12.77;8.57;;;26.90;89.00;;;;;;4954392;28;20108;-75
2023/09/10 12:14:37;;;;;;;16.95;8.40;;;26.90;88.90;;;;;;4941883;28;20066;-78
2023/09/10 12:17:03;;;;;;;10.70;6.65;;;26.90;88.30;;;;;;4951593;28;20818;-82
2023/09/10 12:19:32;;;;;;;11.95;7.10;;;26.90;88.40;;;;;;4970007;28;20054;-78
2023/09/10 12:21:58;;;;;;;16.48;8.32;;;26.90;88.60;;;;;;4955677;28;20072;-76
2023/09/10 12:24:24;;;;;;;12.90;7.93;;;26.70;89.20;;;;;;4953432;28;20658;-77
2023/09/10 12:26:50;;;;;;;11.70;7.60;;;26.70;89.70;;;;;;4947656;28;20061;-80
2023/09/10 12:29:16;;;;;;;10.98;7.90;;;26.80;90.20;;;;;;4942818;28;20050;-81
2023/09/10 12:31:44;;;;;;;12.13;7.22;;;26.80;90.60;;;;;;4952659;28;20090;-84
2023/09/10 12:34:11;;;;;;;17.67;8.07;;;26.90;90.40;;;;;;4953966;28;20082;-76